Madera, PA (16661)

07:59 AM EDT die 24o October, anno 2014 (GMT -0400)
South Philipsburg | Change Station
CLOSE
Current Station
Personal Weather Stations
Location: Philipsburg, PA
Elevation: 1444 ft
Nearby Weather Stations

Elev 1444 ft 40.89 °N, 78.22 °W | Updated 3 minutes ago

Aequaliter Nubila
Aequaliter Nubila
42.5 °F
Feels Like 42 °F
N
0.0
Ventus Variabilis Ventus from Magis Auster quam Zephyrus
Gusts 1.0 mph

Hodie
High -- | Low -- °F
--% Chance of Precip.
Yesterday
High -- | Low -- °F
Precip. -- in
7:35 AM 6:20 PM
New, 0% visible
Pressio 30.05 in
Visibilitas 10.0 milia passuum
Clouds Plerumque Nubila 1700 ft
Frigus Venti 42 °F
Frigus in quo Ros apparet 41 °F
Umor 96%
Rainfall 0.00 in
Snow Depth Not available.
UV 0 out of 12
Pollen 1.20 out of 12
Air Quality Not available.
Flu Activity Sporadic
METAR KFIG 241154Z AUTO VRB04KT 10SM BKN017 07/04 A3003 RMK AO2 SLP175 T00720044 10083 20056 53003

More Conditions Fewer Conditions

Pressio 30.05 in
Visibilitas 10.0 milia passuum
Clouds Plerumque Nubila 1700 ft
Frigus Venti 42 °F
Frigus in quo Ros apparet 41 °F
Umor 96%
Rainfall 0.00 in
Snow Depth Not available.
UV 0 out of 12
Pollen 1.20 out of 12
Air Quality Not available.
Flu Activity Sporadic
METAR KFIG 241154Z AUTO VRB04KT 10SM BKN017 07/04 A3003 RMK AO2 SLP175 T00720044 10083 20056 53003

More Conditions Fewer Conditions

10-Day Weather Forecast

Almanac

Astronomy

Oct. 24, 2014 Rise Set
Actual Time 7:35 AM EDT 6:20 PM EDT
Civil Twilight 7:06 AM EDT 6:48 PM EDT
Nautical Twilight 6:34 AM EDT 7:20 PM EDT
Astronomical Twilight 6:03 AM EDT 7:52 PM EDT
Moon 8:12 AM EDT 6:58 PM EDT
Length Of Visible Light 11h 41m
Length of Day
10h 45m
Tomorrow will be 2m 31s shorter.
New, 0% of the Moon is Illuminated
Hodie
New
Oct 30
First Quarter
Nov 6
Full
Nov 14
Last Quarter
Nov 22
New

Today's Extremes

State Highs State Lows

Community

WunderPhotos

Upload Photos

1,764,526 photos uploaded!

Nearby

Snow Depth

Station Depth Elevation
No new snow has been reported.

Earthquake Activity

City Distance Mag. Time & Date
No recent earthquake activity has been reported nearby.
Minimum magnitude displayed is 2.5.

Coastal Water Temperatures

Locus Calor
No Stations Reporting

Nearby Weather Stations